Derwent, OH (43733)

9:46 AM EST on March 06, 2015 (GMT -0500)
APRSWXNET Senecaville OH US | Change Station
CLOSE
Current Station
Personal Weather Station
Location: Buffalo, OH
Elevation: 941 ft
Nearby Weather Stations

Elev 941 ft 39.90 °N, 81.50 °W | Updated 33 minutes ago

Clear
Clear
5 °F
Feels Like 5 °F
N
0
Wind Variable Wind from ESE
Gusts 0.0 mph

Today
High -- | Low -- °F
--% Chance of Precip.
Yesterday
High -- | Low -- °F
Precip. -- in
6:52 AM 6:23 PM
Full, 99% visible
Pressure 30.61 in
Visibility 10.0 miles
Clouds Clear
Windchill 5 °F
Dew Point 2 °F
Humidity 88%
Rainfall in
Snow Depth Not available.
UV 2 out of 12
Pollen .50 out of 12
Air Quality Not available.
Flu Activity Not available.
METAR KZZV 061353Z AUTO 00000KT 10SM CLR M17/M18 A3055 RMK AO2 SLP366 T11671178 TSNO

More Conditions Fewer Conditions

Pressure 30.61 in
Visibility 10.0 miles
Clouds Clear
Windchill 5 °F
Dew Point 2 °F
Humidity 88%
Rainfall in
Snow Depth Not available.
UV 2 out of 12
Pollen .50 out of 12
Air Quality Not available.
Flu Activity Not available.
METAR KZZV 061353Z AUTO 00000KT 10SM CLR M17/M18 A3055 RMK AO2 SLP366 T11671178 TSNO

More Conditions Fewer Conditions

10-Day Weather Forecast

Almanac

Astronomy

Mar. 06, 2015 Rise Set
Actual Time
Civil Twilight
Nautical Twilight
Astronomical Twilight
Moon
Length of Visible Light
Length of Day
Tomorrow will be .
, % of the Moon is Illuminated

Today's Extremes

State Highs State Lows

Community

WunderPhotos

Upload Photos

1,803,285 photos uploaded!

WunderBlogs® & News

Nearby

Air Quality

  Air Quality AQ Index Pollutant
Not available.

Snow Depth

Station Depth Elevation

Earthquake Activity

City Distance Mag. Time & Date
Minimum magnitude displayed is 2.5.

Coastal Water Temperatures

Place Temperature

Nearby Weather Stations